Time;durP1;ratioP1;P1;durP2;ratioP2;P2;SDS_P1;SDS_P2;PMS_P1;PMS_P2;Temp;Humidity;BMP_temperature;BMP_pressure;BME280_temperature;BME280_humidity;BME280_pressure;Samples;Min_cycle;Max_cycle;Signal;HPM_P1;HPM_P2
2022/07/17 00:02:27;;;;;;;1.60;0.60;;;15.50;80.00;;;;;;5095239;28;20368;-86
2022/07/17 00:04:54;;;;;;;0.57;0.40;;;15.70;78.70;;;;;;5094692;28;20408;-86
2022/07/17 00:07:21;;;;;;;2.10;0.57;;;15.70;79.10;;;;;;5090094;28;20381;-87
2022/07/17 00:09:48;;;;;;;1.00;0.50;;;15.90;77.90;;;;;;5083164;28;20384;-86
2022/07/17 00:12:16;;;;;;;2.80;0.50;;;15.90;77.10;;;;;;5091861;28;20787;-86
2022/07/17 00:14:43;;;;;;;1.48;0.50;;;16.00;77.60;;;;;;5094218;28;20460;-87
2022/07/17 00:17:10;;;;;;;0.60;0.40;;;16.10;74.90;;;;;;5092840;28;20395;-88
2022/07/17 00:19:37;;;;;;;2.60;0.60;;;16.30;73.80;;;;;;5093846;28;20412;-90
2022/07/17 00:22:04;;;;;;;1.40;0.57;;;16.40;74.60;;;;;;5095203;28;20398;-88
2022/07/17 00:24:32;;;;;;;1.67;0.40;;;16.40;74.40;;;;;;5114529;28;20370;-86
2022/07/17 00:26:59;;;;;;;3.08;0.60;;;16.40;75.50;;;;;;5093929;28;20725;-89
2022/07/17 00:29:26;;;;;;;1.20;0.50;;;16.50;74.70;;;;;;5097244;28;20445;-89
2022/07/17 00:31:53;;;;;;;0.80;0.60;;;16.50;74.20;;;;;;5089894;28;20772;-89
2022/07/17 00:34:20;;;;;;;2.90;0.50;;;16.50;74.50;;;;;;5090084;28;20380;-91
2022/07/17 00:36:47;;;;;;;1.65;0.70;;;16.60;74.00;;;;;;5090291;28;20875;-89
2022/07/17 00:39:14;;;;;;;1.02;0.55;;;16.80;74.00;;;;;;5101004;28;20389;-90
2022/07/17 00:41:45;;;;;;;1.90;0.60;;;16.70;73.70;;;;;;5095005;28;20416;-89
2022/07/17 00:44:12;;;;;;;16.13;2.85;;;16.80;75.10;;;;;;5101743;28;20463;-87
2022/07/17 00:46:40;;;;;;;1.02;0.60;;;17.00;72.60;;;;;;5092528;28;20388;-84
2022/07/17 00:49:09;;;;;;;0.90;0.50;;;17.10;71.40;;;;;;5093073;28;20433;-84
2022/07/17 00:51:37;;;;;;;2.13;0.60;;;17.20;71.20;;;;;;5098155;28;20791;-83
2022/07/17 00:54:04;;;;;;;2.67;0.50;;;17.20;72.10;;;;;;5081306;28;20459;-82
2022/07/17 00:56:33;;;;;;;1.77;0.50;;;17.30;70.40;;;;;;5090688;28;20368;-82
2022/07/17 00:59:01;;;;;;;2.10;0.50;;;17.50;69.70;;;;;;5092078;28;20423;-83
2022/07/17 01:01:31;;;;;;;1.75;0.63;;;17.50;71.20;;;;;;5098586;28;20939;-82
2022/07/17 01:03:58;;;;;;;0.50;0.50;;;17.60;71.10;;;;;;5092875;28;20396;-83
2022/07/17 01:06:26;;;;;;;2.25;0.63;;;17.60;71.30;;;;;;5100146;28;20465;-83
2022/07/17 01:08:53;;;;;;;2.03;0.50;;;17.70;70.30;;;;;;5095625;28;20387;-83
2022/07/17 01:11:21;;;;;;;1.80;0.57;;;17.80;69.60;;;;;;5086344;28;20760;-86
2022/07/17 01:13:48;;;;;;;1.80;0.50;;;17.90;70.40;;;;;;5081207;28;20400;-82
2022/07/17 01:16:16;;;;;;;1.20;0.52;;;18.10;70.70;;;;;;5089594;28;20465;-85
2022/07/17 01:18:43;;;;;;;3.22;0.70;;;18.10;69.60;;;;;;5090628;28;20447;-88
2022/07/17 01:21:10;;;;;;;3.42;0.52;;;18.10;68.00;;;;;;5094739;28;20415;-86
2022/07/17 01:23:37;;;;;;;1.42;0.50;;;18.30;67.40;;;;;;5098621;28;20393;-83
2022/07/17 01:26:05;;;;;;;1.20;0.60;;;18.60;68.50;;;;;;5100958;28;20384;-87
2022/07/17 01:28:32;;;;;;;1.50;0.30;;;18.70;66.50;;;;;;5094553;28;20429;-86
2022/07/17 01:31:03;;;;;;;4.20;0.52;;;19.10;57.10;;;;;;5094696;28;20379;-84
2022/07/17 01:33:30;;;;;;;2.03;0.40;;;19.40;54.60;;;;;;5095314;28;20381;-87
2022/07/17 01:35:57;;;;;;;2.60;0.47;;;19.50;52.60;;;;;;5094537;28;20394;-87
2022/07/17 01:38:24;;;;;;;3.35;0.40;;;19.70;51.40;;;;;;5094423;28;20384;-86
2022/07/17 01:40:51;;;;;;;0.37;0.30;;;19.70;50.50;;;;;;5094161;28;20400;-84
2022/07/17 01:43:19;;;;;;;3.17;0.60;;;19.70;51.20;;;;;;5094854;28;20368;-85
2022/07/17 01:45:46;;;;;;;15.05;1.15;;;19.80;51.60;;;;;;5103506;28;20848;-84
2022/07/17 01:48:25;;;;;;;3.88;0.57;;;19.90;50.70;;;;;;5095018;28;20380;-84
2022/07/17 01:50:53;;;;;;;4.90;0.70;;;19.90;49.80;;;;;;5080787;28;20495;-83
2022/07/17 01:53:20;;;;;;;4.28;0.70;;;19.80;48.90;;;;;;5093942;28;20374;-83
2022/07/17 01:55:48;;;;;;;1.15;0.60;;;20.00;49.50;;;;;;5094257;28;20432;-84
2022/07/17 01:58:15;;;;;;;1.85;0.40;;;20.10;51.00;;;;;;5094268;28;20840;-82
2022/07/17 02:00:43;;;;;;;3.05;0.50;;;20.00;49.20;;;;;;5093831;28;20413;-83
2022/07/17 02:03:10;;;;;;;2.77;0.60;;;20.00;48.00;;;;;;5089471;28;20744;-87
2022/07/17 02:05:37;;;;;;;3.28;0.60;;;20.00;48.20;;;;;;5092545;28;20396;-84
2022/07/17 02:08:05;;;;;;;1.48;0.40;;;20.00;48.00;;;;;;5094042;28;20364;-84
2022/07/17 02:10:32;;;;;;;5.30;0.50;;;20.10;47.50;;;;;;5106447;28;20762;-85
2022/07/17 02:12:59;;;;;;;0.60;0.30;;;20.10;49.30;;;;;;5090664;28;20465;-86
2022/07/17 02:15:26;;;;;;;2.83;0.60;;;20.10;48.50;;;;;;5093969;28;20370;-86
2022/07/17 02:17:54;;;;;;;2.75;0.50;;;20.20;47.90;;;;;;5093504;28;20372;-84
2022/07/17 02:20:21;;;;;;;3.15;0.70;;;20.10;47.00;;;;;;5093593;28;20404;-84
2022/07/17 02:22:48;;;;;;;1.40;0.50;;;20.00;48.50;;;;;;5079179;28;20374;-86
2022/07/17 02:25:16;;;;;;;3.25;0.65;;;20.10;48.70;;;;;;5094757;28;20388;-85
2022/07/17 02:27:43;;;;;;;7.60;0.87;;;20.10;48.60;;;;;;5080258;28;20381;-82
2022/07/17 02:30:13;;;;;;;1.80;0.40;;;20.10;47.60;;;;;;5092691;28;20368;-83
2022/07/17 02:32:41;;;;;;;2.47;0.60;;;20.10;47.10;;;;;;5095070;28;20860;-83
2022/07/17 02:35:10;;;;;;;1.27;0.60;;;20.10;47.60;;;;;;5093440;28;20380;-83
2022/07/17 02:37:42;;;;;;;2.25;0.40;;;20.20;47.10;;;;;;5100119;28;20426;-85
2022/07/17 02:40:10;;;;;;;2.45;0.50;;;20.10;46.80;;;;;;5098839;28;20475;-85
2022/07/17 02:42:37;;;;;;;4.13;0.80;;;20.10;47.30;;;;;;5099032;28;20377;-84
2022/07/17 02:45:06;;;;;;;1.98;0.40;;;20.10;45.90;;;;;;5093379;28;20933;-82
2022/07/17 02:47:34;;;;;;;2.35;0.40;;;20.00;45.30;;;;;;5093192;28;20375;-83
2022/07/17 02:50:05;;;;;;;1.63;0.40;;;20.10;46.60;;;;;;5093013;28;20374;-83
2022/07/17 02:52:32;;;;;;;1.50;0.50;;;20.10;46.40;;;;;;5102964;28;20378;-84
2022/07/17 02:54:59;;;;;;;2.15;0.38;;;20.10;45.80;;;;;;5093228;28;20807;-86
2022/07/17 02:57:26;;;;;;;1.23;0.30;;;20.10;46.00;;;;;;5091391;28;20397;-79
2022/07/17 02:59:53;;;;;;;2.27;0.60;;;20.10;43.90;;;;;;5083949;28;20402;-83
2022/07/17 03:02:20;;;;;;;1.58;0.60;;;20.10;45.60;;;;;;5090697;28;20403;-83
2022/07/17 03:04:47;;;;;;;1.27;0.50;;;20.10;44.50;;;;;;5091182;28;20400;-83
2022/07/17 03:07:15;;;;;;;0.43;0.43;;;20.10;45.00;;;;;;5090839;28;20391;-84
2022/07/17 03:09:42;;;;;;;1.40;0.40;;;20.10;46.30;;;;;;5091340;28;20438;-84
2022/07/17 03:12:09;;;;;;;1.48;0.40;;;20.10;46.10;;;;;;5090723;28;20456;-84
2022/07/17 03:14:37;;;;;;;0.52;0.40;;;20.10;44.40;;;;;;5101790;28;20449;-82
2022/07/17 03:17:04;;;;;;;1.27;0.50;;;20.10;44.40;;;;;;5091709;28;20799;-85
2022/07/17 03:19:31;;;;;;;1.30;0.40;;;20.20;42.80;;;;;;5091318;28;20415;-83
2022/07/17 03:21:58;;;;;;;2.25;0.45;;;20.20;43.30;;;;;;5091531;28;20387;-83
2022/07/17 03:24:25;;;;;;;1.40;0.38;;;20.20;43.50;;;;;;5102871;28;20716;-85
2022/07/17 03:26:52;;;;;;;0.40;0.30;;;20.10;43.60;;;;;;5093664;28;20388;-84
2022/07/17 03:29:19;;;;;;;0.55;0.35;;;20.10;44.30;;;;;;5090756;28;20377;-83
2022/07/17 03:31:47;;;;;;;2.20;0.40;;;20.20;42.90;;;;;;5090763;28;20496;-83
2022/07/17 03:34:14;;;;;;;1.60;0.50;;;20.20;43.00;;;;;;5091884;28;20377;-84
2022/07/17 03:36:42;;;;;;;1.17;0.30;;;20.30;43.10;;;;;;5090121;28;20495;-83
2022/07/17 03:39:09;;;;;;;2.08;0.30;;;20.20;43.30;;;;;;5091900;28;20745;-83
2022/07/17 03:41:36;;;;;;;0.70;0.40;;;20.20;43.60;;;;;;5090982;28;20914;-84
2022/07/17 03:44:03;;;;;;;1.23;0.60;;;20.30;44.20;;;;;;5090767;28;20457;-83
2022/07/17 03:46:30;;;;;;;0.98;0.60;;;20.40;43.30;;;;;;5092410;28;20974;-83
2022/07/17 03:48:57;;;;;;;0.80;0.50;;;20.30;43.40;;;;;;5077531;28;20388;-82
2022/07/17 03:51:25;;;;;;;0.75;0.40;;;20.30;43.60;;;;;;5091778;28;20380;-82
2022/07/17 03:53:52;;;;;;;0.50;0.30;;;20.20;42.40;;;;;;5091636;28;20740;-82
2022/07/17 03:56:19;;;;;;;0.70;0.50;;;20.20;43.30;;;;;;5091400;28;20470;-82
2022/07/17 03:58:46;;;;;;;1.90;0.40;;;20.30;42.80;;;;;;5091260;28;20491;-85
2022/07/17 04:01:13;;;;;;;1.23;0.50;;;20.30;42.90;;;;;;5091298;28;20408;-82
2022/07/17 04:03:41;;;;;;;0.90;0.40;;;20.30;42.50;;;;;;5090869;28;20380;-83
2022/07/17 04:06:08;;;;;;;2.47;0.50;;;20.30;42.20;;;;;;5098503;28;20466;-87
2022/07/17 04:08:35;;;;;;;1.45;0.40;;;20.30;42.00;;;;;;5091543;28;20878;-87
2022/07/17 04:11:02;;;;;;;1.10;0.37;;;20.30;41.30;;;;;;5089446;28;20392;-88
2022/07/17 04:13:29;;;;;;;0.85;0.40;;;20.30;41.50;;;;;;5079298;28;20376;-86
2022/07/17 04:15:56;;;;;;;0.98;0.35;;;20.30;41.80;;;;;;5091364;28;20689;-85
2022/07/17 04:18:29;;;;;;;0.90;0.30;;;20.30;41.70;;;;;;5091832;28;20373;-86
2022/07/17 04:20:59;;;;;;;0.73;0.30;;;20.20;41.80;;;;;;5091487;28;20875;-86
2022/07/17 04:23:26;;;;;;;0.60;0.30;;;20.20;42.20;;;;;;5091059;28;20376;-85
2022/07/17 04:25:54;;;;;;;1.10;0.40;;;20.20;41.90;;;;;;5091174;28;20380;-85
2022/07/17 04:28:21;;;;;;;0.40;0.40;;;20.20;41.00;;;;;;5091009;28;20376;-87
2022/07/17 04:30:49;;;;;;;2.08;0.50;;;20.20;41.40;;;;;;5091090;28;20380;-86
2022/07/17 04:33:16;;;;;;;2.83;0.40;;;20.20;41.80;;;;;;5077939;28;20380;-86
2022/07/17 04:35:44;;;;;;;1.63;0.57;;;20.20;41.80;;;;;;5089803;28;20748;-86
2022/07/17 04:38:12;;;;;;;0.47;0.40;;;20.20;41.10;;;;;;5089390;28;20965;-87
2022/07/17 04:40:39;;;;;;;2.10;0.40;;;20.20;42.50;;;;;;5091119;28;20411;-87
2022/07/17 04:43:07;;;;;;;0.98;0.40;;;20.40;41.70;;;;;;5089794;28;20364;-88
2022/07/17 04:45:34;;;;;;;1.60;0.30;;;20.40;41.30;;;;;;5076835;28;20380;-87
2022/07/17 04:48:01;;;;;;;1.42;0.30;;;20.50;39.40;;;;;;5090805;28;20393;-87
2022/07/17 04:50:29;;;;;;;1.50;0.30;;;20.60;39.50;;;;;;5090934;28;20434;-86
2022/07/17 04:52:56;;;;;;;1.40;0.30;;;20.80;39.10;;;;;;5090853;28;20392;-86
2022/07/17 04:55:24;;;;;;;1.50;0.30;;;20.90;39.30;;;;;;5089725;28;20882;-86
2022/07/17 04:57:51;;;;;;;0.60;0.28;;;21.10;39.50;;;;;;5090638;28;20371;-87
2022/07/17 05:00:18;;;;;;;1.50;0.30;;;21.10;39.10;;;;;;5098228;28;20392;-85
2022/07/17 05:02:46;;;;;;;1.50;0.40;;;21.10;38.90;;;;;;5091580;28;20725;-83
2022/07/17 05:05:13;;;;;;;1.45;0.40;;;21.40;40.00;;;;;;5090522;28;20408;-85
2022/07/17 05:07:40;;;;;;;0.30;0.30;;;21.70;38.90;;;;;;5084003;28;20392;-84
2022/07/17 05:10:08;;;;;;;2.22;0.40;;;21.30;38.80;;;;;;5090492;28;20380;-86
2022/07/17 05:12:36;;;;;;;1.35;0.47;;;20.90;39.30;;;;;;5080074;28;20431;-85
2022/07/17 05:15:04;;;;;;;1.10;0.40;;;20.60;40.00;;;;;;5090081;28;20392;-84
2022/07/17 05:17:32;;;;;;;0.90;0.38;;;20.40;39.30;;;;;;5095452;28;20384;-84
2022/07/17 05:19:59;;;;;;;1.55;0.47;;;20.20;39.90;;;;;;5090799;28;20400;-89
2022/07/17 05:22:26;;;;;;;0.82;0.30;;;20.10;40.10;;;;;;5089597;28;20384;-90
2022/07/17 05:24:53;;;;;;;0.32;0.30;;;20.00;39.30;;;;;;5089051;28;20422;-90
2022/07/17 05:27:21;;;;;;;0.37;0.37;;;19.90;39.60;;;;;;5090370;28;20392;-90
2022/07/17 05:29:49;;;;;;;1.90;0.40;;;19.90;40.10;;;;;;5093016;28;20387;-89
2022/07/17 05:32:16;;;;;;;0.98;0.50;;;19.80;39.90;;;;;;5091286;28;20467;-93
2022/07/17 05:34:43;;;;;;;1.73;0.35;;;19.80;39.60;;;;;;5093582;28;20384;-83
2022/07/17 05:37:10;;;;;;;0.80;0.40;;;19.80;40.30;;;;;;5090043;28;20396;-84
2022/07/17 05:39:39;;;;;;;3.70;0.50;;;19.80;39.60;;;;;;5090224;28;20451;-82
2022/07/17 05:42:06;;;;;;;1.27;0.40;;;19.80;40.70;;;;;;5089701;28;20400;-84
2022/07/17 05:44:34;;;;;;;1.25;0.40;;;19.70;40.50;;;;;;5090100;28;20416;-83
2022/07/17 05:47:01;;;;;;;2.55;0.40;;;19.60;41.50;;;;;;5090734;28;20475;-82
2022/07/17 05:49:28;;;;;;;1.10;0.30;;;19.60;40.70;;;;;;5090168;28;20878;-82
2022/07/17 05:51:55;;;;;;;1.73;0.70;;;19.60;40.90;;;;;;5090075;28;20376;-82
2022/07/17 05:54:22;;;;;;;1.30;0.43;;;19.50;40.30;;;;;;5089438;28;20827;-84
2022/07/17 05:56:49;;;;;;;0.98;0.35;;;19.50;40.50;;;;;;5090016;28;20376;-84
2022/07/17 05:59:16;;;;;;;1.88;0.40;;;19.40;40.60;;;;;;5089818;28;20388;-84
2022/07/17 06:01:44;;;;;;;2.50;0.93;;;19.40;40.80;;;;;;5089908;28;20428;-83
2022/07/17 06:04:11;;;;;;;1.08;0.40;;;19.40;41.40;;;;;;5089850;28;20369;-84
2022/07/17 06:06:38;;;;;;;0.77;0.43;;;19.40;41.50;;;;;;5093753;28;20492;-85
2022/07/17 06:09:05;;;;;;;2.10;1.00;;;19.30;41.40;;;;;;5093672;28;21076;-84
2022/07/17 06:11:32;;;;;;;0.88;0.80;;;19.30;42.10;;;;;;5091670;28;20395;-84
2022/07/17 06:13:59;;;;;;;1.75;0.60;;;19.20;41.60;;;;;;5093547;28;20388;-86
2022/07/17 06:16:27;;;;;;;6.38;1.05;;;19.20;41.80;;;;;;5093387;28;20383;-84
2022/07/17 06:18:54;;;;;;;3.83;0.98;;;19.10;41.20;;;;;;5093185;28;20390;-82
2022/07/17 06:21:21;;;;;;;1.17;0.60;;;19.10;41.30;;;;;;5093346;28;20495;-83
2022/07/17 06:23:48;;;;;;;11.13;8.07;;;19.00;41.60;;;;;;5093365;28;20369;-83
2022/07/17 06:26:15;;;;;;;4.97;0.73;;;19.00;41.70;;;;;;5092731;28;20390;-82
2022/07/17 06:28:42;;;;;;;1.70;0.80;;;18.90;41.70;;;;;;5105803;28;20388;-83
2022/07/17 06:31:09;;;;;;;1.75;0.73;;;18.90;42.40;;;;;;5095283;28;20392;-88
2022/07/17 06:33:37;;;;;;;1.90;1.67;;;18.80;43.20;;;;;;5092987;28;20836;-85
2022/07/17 06:36:04;;;;;;;2.08;1.38;;;18.60;44.10;;;;;;5093999;28;20837;-88
2022/07/17 06:38:33;;;;;;;2.22;2.03;;;18.60;43.90;;;;;;5093967;28;20389;-89
2022/07/17 06:41:00;;;;;;;2.70;0.80;;;18.50;43.80;;;;;;5095169;28;20403;-86
2022/07/17 06:43:28;;;;;;;2.55;0.70;;;18.40;43.60;;;;;;5094712;28;20479;-87
2022/07/17 06:45:55;;;;;;;1.85;0.43;;;18.40;44.00;;;;;;5094878;28;20872;-90
2022/07/17 06:48:22;;;;;;;7.35;0.77;;;18.30;43.60;;;;;;5094695;28;20456;-83
2022/07/17 06:50:49;;;;;;;1.50;1.40;;;18.30;43.50;;;;;;5094881;28;20380;-87
2022/07/17 06:53:17;;;;;;;2.08;1.42;;;18.30;43.90;;;;;;5094814;28;20360;-89
2022/07/17 06:55:44;;;;;;;4.13;2.67;;;18.20;44.30;;;;;;5094971;28;20390;-88
2022/07/17 06:58:11;;;;;;;2.80;1.50;;;18.00;44.90;;;;;;5094002;28;20387;-85
2022/07/17 07:00:39;;;;;;;4.90;2.83;;;17.80;45.30;;;;;;5094802;28;20400;-88
2022/07/17 07:03:06;;;;;;;1.67;0.85;;;17.70;46.20;;;;;;5094470;28;20485;-88
2022/07/17 07:05:33;;;;;;;2.83;1.70;;;17.40;46.30;;;;;;5093105;28;20377;-88
2022/07/17 07:08:01;;;;;;;2.90;1.83;;;17.30;46.10;;;;;;5094385;28;20376;-88
2022/07/17 07:10:28;;;;;;;3.37;2.30;;;17.20;46.70;;;;;;5094268;28;20868;-87
2022/07/17 07:12:55;;;;;;;2.30;1.10;;;17.10;47.50;;;;;;5094475;28;20924;-88
2022/07/17 07:15:23;;;;;;;1.40;0.80;;;16.90;48.10;;;;;;5094158;28;20876;-87
2022/07/17 07:17:51;;;;;;;1.40;0.80;;;16.90;47.90;;;;;;5091880;28;20368;-88
2022/07/17 07:20:21;;;;;;;1.87;0.83;;;16.90;48.20;;;;;;5093925;28;20717;-89
2022/07/17 07:22:48;;;;;;;1.98;0.88;;;16.80;48.60;;;;;;5093874;28;20383;-89
2022/07/17 07:25:15;;;;;;;1.90;1.00;;;16.70;48.70;;;;;;5092618;28;20443;-88
2022/07/17 07:27:42;;;;;;;2.47;1.30;;;16.70;49.10;;;;;;5093984;28;20388;-88
2022/07/17 07:30:10;;;;;;;1.42;1.00;;;16.50;49.60;;;;;;5094213;28;20376;-86
2022/07/17 07:32:39;;;;;;;1.45;1.15;;;16.60;48.60;;;;;;5093970;28;20467;-87
2022/07/17 07:35:08;;;;;;;5.00;2.75;;;16.60;49.60;;;;;;5093907;28;20860;-86
2022/07/17 07:37:36;;;;;;;3.42;2.50;;;16.60;49.20;;;;;;5094627;28;20472;-89
2022/07/17 07:40:06;;;;;;;3.20;1.83;;;16.60;49.80;;;;;;5100274;28;20397;-87
2022/07/17 07:42:35;;;;;;;3.17;1.90;;;16.50;49.60;;;;;;5060498;28;20845;-84
2022/07/17 07:45:02;;;;;;;3.33;1.50;;;16.50;50.00;;;;;;5093701;28;20373;-88
2022/07/17 07:47:30;;;;;;;1.70;1.20;;;16.50;49.80;;;;;;5093721;28;20391;-88
2022/07/17 07:49:57;;;;;;;3.17;1.52;;;16.60;50.00;;;;;;5093788;28;20365;-85
2022/07/17 07:52:24;;;;;;;2.92;2.40;;;16.60;50.10;;;;;;5093645;28;20882;-90
2022/07/17 07:54:51;;;;;;;1.90;1.40;;;16.40;50.60;;;;;;5096451;28;20452;-85
2022/07/17 07:57:18;;;;;;;1.77;1.40;;;16.20;51.30;;;;;;5095139;28;20471;-83
2022/07/17 07:59:46;;;;;;;1.20;1.10;;;16.10;51.10;;;;;;5094010;28;20791;-86
2022/07/17 08:02:13;;;;;;;2.08;1.05;;;16.00;51.20;;;;;;5092717;28;20392;-86
2022/07/17 08:04:40;;;;;;;2.22;1.20;;;15.90;51.20;;;;;;5093604;28;20365;-92
2022/07/17 08:07:07;;;;;;;2.33;1.23;;;15.90;51.70;;;;;;5092463;28;20390;-87
2022/07/17 08:09:34;;;;;;;2.10;1.20;;;15.90;52.00;;;;;;5093621;28;20515;-86
2022/07/17 08:12:01;;;;;;;1.40;1.00;;;15.70;52.00;;;;;;5093691;28;20373;-89
2022/07/17 08:14:28;;;;;;;2.63;1.05;;;15.90;52.20;;;;;;5093356;28;20365;-83
2022/07/17 08:16:56;;;;;;;1.00;0.90;;;15.80;52.30;;;;;;5093054;28;20736;-86
2022/07/17 08:19:23;;;;;;;1.88;1.02;;;15.80;52.30;;;;;;5093492;28;20367;-88
2022/07/17 08:21:50;;;;;;;3.90;1.17;;;15.90;51.70;;;;;;5092617;28;20408;-86
2022/07/17 08:24:17;;;;;;;2.10;0.90;;;15.80;52.00;;;;;;5094264;28;20860;-89
2022/07/17 08:26:45;;;;;;;1.20;0.93;;;15.70;52.20;;;;;;5093385;28;20380;-86
2022/07/17 08:29:12;;;;;;;0.80;0.80;;;15.70;52.20;;;;;;5093054;28;20414;-84
2022/07/17 08:31:39;;;;;;;2.03;0.90;;;15.70;51.90;;;;;;5094006;28;20375;-89
2022/07/17 08:34:06;;;;;;;1.35;0.93;;;15.70;52.80;;;;;;5094432;28;20733;-86
2022/07/17 08:36:41;;;;;;;1.60;0.90;;;15.60;52.80;;;;;;5095989;28;20410;-84
2022/07/17 08:39:08;;;;;;;2.90;0.90;;;15.70;52.10;;;;;;5093976;28;20377;-82
2022/07/17 08:41:39;;;;;;;1.20;0.90;;;15.70;53.30;;;;;;5098256;28;20400;-83
2022/07/17 08:44:07;;;;;;;3.88;0.90;;;15.70;52.70;;;;;;5096584;28;20368;-82
2022/07/17 08:46:39;;;;;;;1.10;0.90;;;15.70;53.00;;;;;;5101104;28;20871;-85
2022/07/17 08:49:07;;;;;;;2.35;1.00;;;15.60;53.20;;;;;;5097152;28;20376;-84
2022/07/17 08:51:35;;;;;;;2.35;1.15;;;15.50;53.80;;;;;;5093407;28;20775;-84
2022/07/17 08:54:03;;;;;;;2.15;1.45;;;15.50;53.50;;;;;;5093092;28;20874;-89
2022/07/17 08:56:30;;;;;;;2.63;1.40;;;15.50;52.90;;;;;;5092989;28;20404;-86
2022/07/17 08:58:57;;;;;;;2.50;1.30;;;15.60;53.60;;;;;;5092440;28;20418;-86
2022/07/17 09:01:25;;;;;;;1.95;1.58;;;15.50;53.80;;;;;;5093277;28;20429;-85
2022/07/17 09:04:05;;;;;;;5.30;1.60;;;15.50;53.80;;;;;;5094212;28;20426;-85
2022/07/17 09:06:33;;;;;;;2.15;1.42;;;15.50;54.20;;;;;;5093753;28;20392;-86
2022/07/17 09:09:05;;;;;;;2.20;1.00;;;15.40;53.90;;;;;;5093468;28;20369;-86
2022/07/17 09:11:43;;;;;;;1.60;0.98;;;15.50;53.70;;;;;;5093578;28;20375;-88
2022/07/17 09:14:13;;;;;;;2.13;1.05;;;15.40;53.30;;;;;;5099652;28;20729;-83
2022/07/17 09:16:56;;;;;;;2.92;1.30;;;15.50;54.10;;;;;;5101351;28;20430;-87
2022/07/17 09:19:28;;;;;;;2.43;0.80;;;15.40;54.80;;;;;;5097596;28;20368;-85
2022/07/17 09:22:07;;;;;;;1.20;0.93;;;15.50;54.10;;;;;;5095762;28;20396;-91
2022/07/17 09:24:45;;;;;;;2.70;1.20;;;15.60;54.50;;;;;;5095705;28;20368;-87
2022/07/17 09:27:17;;;;;;;1.00;0.90;;;15.60;54.30;;;;;;5093649;28;20381;-94
2022/07/17 09:30:12;;;;;;;1.80;0.82;;;15.70;53.80;;;;;;5095511;28;20375;-92
2022/07/17 09:32:41;;;;;;;4.60;0.93;;;15.70;53.80;;;;;;5093658;28;20386;-93
2022/07/17 09:35:11;;;;;;;1.45;0.80;;;15.70;53.60;;;;;;5100051;28;20372;-85
2022/07/17 09:37:38;;;;;;;1.80;0.88;;;15.60;54.10;;;;;;5097157;28;20403;-84
2022/07/17 09:43:04;;;;;;;2.22;0.85;;;15.60;54.10;;;;;;5099210;28;20388;-92
2022/07/17 09:45:36;;;;;;;1.30;0.80;;;15.50;54.40;;;;;;5099404;28;20380;-87
2022/07/17 09:48:05;;;;;;;1.20;0.93;;;15.90;53.80;;;;;;5099238;28;20368;-87
2022/07/17 09:50:37;;;;;;;1.73;0.80;;;15.80;54.00;;;;;;5097932;28;20426;-92
2022/07/17 09:53:05;;;;;;;1.10;1.00;;;15.80;54.30;;;;;;5095637;28;20915;-93
2022/07/17 09:55:34;;;;;;;1.30;0.90;;;16.00;54.10;;;;;;5098989;28;20439;-84
2022/07/17 09:58:03;;;;;;;3.40;1.00;;;15.90;54.10;;;;;;5098230;28;20727;-84
2022/07/17 10:00:31;;;;;;;1.48;1.17;;;15.80;54.80;;;;;;5100781;28;20834;-88
2022/07/17 10:02:58;;;;;;;2.28;1.00;;;15.60;55.00;;;;;;5099622;28;20460;-86
2022/07/17 10:05:26;;;;;;;2.50;1.00;;;15.60;55.20;;;;;;5102288;28;20474;-89
2022/07/17 10:07:53;;;;;;;1.08;0.90;;;15.60;55.30;;;;;;5102818;28;20388;-86
2022/07/17 10:10:21;;;;;;;1.80;1.00;;;15.60;55.70;;;;;;5096495;28;20852;-89
2022/07/17 10:12:50;;;;;;;1.70;0.80;;;15.70;55.80;;;;;;5095759;28;20412;-84
2022/07/17 10:15:19;;;;;;;4.07;0.93;;;15.70;55.80;;;;;;5095872;28;20505;-86
2022/07/17 10:17:47;;;;;;;1.48;1.10;;;15.70;56.20;;;;;;5097827;28;20883;-94
2022/07/17 10:20:25;;;;;;;2.15;1.33;;;15.70;55.90;;;;;;5096188;28;20947;-85
2022/07/17 10:22:52;;;;;;;1.90;1.00;;;16.10;55.90;;;;;;5094235;28;20772;-86
2022/07/17 10:25:20;;;;;;;2.70;0.90;;;16.10;56.00;;;;;;5096223;28;20375;-92
2022/07/17 10:27:53;;;;;;;3.10;0.90;;;16.10;56.20;;;;;;5096016;28;20733;-91
2022/07/17 10:30:31;;;;;;;2.65;0.80;;;16.00;56.30;;;;;;5095749;28;20451;-83
2022/07/17 10:33:06;;;;;;;2.47;0.95;;;15.90;57.20;;;;;;5096309;28;20376;-91
2022/07/17 10:35:46;;;;;;;2.70;1.20;;;15.90;57.20;;;;;;5096442;28;20396;-83
2022/07/17 10:38:14;;;;;;;2.67;0.90;;;15.80;57.20;;;;;;5095511;28;20392;-91
2022/07/17 10:40:42;;;;;;;2.10;1.00;;;15.90;57.70;;;;;;5097964;28;20821;-96
2022/07/17 10:43:10;;;;;;;2.50;1.20;;;15.90;57.70;;;;;;5099398;28;20384;-95
2022/07/17 10:45:49;;;;;;;2.80;1.23;;;15.90;57.20;;;;;;5097355;28;20529;-84
2022/07/17 10:48:19;;;;;;;2.70;1.35;;;16.00;57.60;;;;;;5096044;28;20360;-90
2022/07/17 10:51:04;;;;;;;2.07;1.70;;;15.90;57.80;;;;;;5096019;28;20364;-92
2022/07/17 10:53:35;;;;;;;3.05;1.13;;;15.90;57.70;;;;;;5094680;28;20372;-91
2022/07/17 10:56:08;;;;;;;1.92;1.40;;;15.90;58.10;;;;;;5096650;28;20372;-90
2022/07/17 10:58:46;;;;;;;1.80;1.20;;;15.80;58.30;;;;;;5078616;28;20937;-87
2022/07/17 11:01:18;;;;;;;2.35;1.15;;;15.70;59.00;;;;;;5096494;28;20400;-89
2022/07/17 11:03:54;;;;;;;4.20;1.60;;;15.60;59.10;;;;;;5099058;28;20720;-90
2022/07/17 11:06:30;;;;;;;2.27;1.20;;;15.70;58.90;;;;;;5094804;28;20795;-93
2022/07/17 11:09:00;;;;;;;5.63;1.30;;;15.70;59.20;;;;;;5098150;28;20438;-89
2022/07/17 11:11:41;;;;;;;2.22;1.20;;;15.60;59.70;;;;;;5095813;28;20380;-92
2022/07/17 11:14:28;;;;;;;3.53;2.17;;;15.60;59.70;;;;;;5095956;28;20426;-91
2022/07/17 11:16:57;;;;;;;2.60;1.40;;;15.60;60.30;;;;;;5096792;28;20433;-92
2022/07/17 11:19:38;;;;;;;2.50;1.40;;;15.50;60.60;;;;;;5097274;28;20732;-86
2022/07/17 11:22:15;;;;;;;2.67;1.40;;;15.40;60.90;;;;;;5096981;28;20376;-91
2022/07/17 11:24:43;;;;;;;3.97;1.45;;;15.40;60.90;;;;;;5096585;28;20864;-86
2022/07/17 11:27:23;;;;;;;2.87;1.40;;;15.40;61.10;;;;;;5097457;28;20525;-92
2022/07/17 11:29:54;;;;;;;2.05;1.17;;;15.30;62.10;;;;;;5095864;28;20372;-91
2022/07/17 11:32:24;;;;;;;3.20;1.20;;;15.30;61.90;;;;;;5096366;28;20379;-84
2022/07/17 11:34:52;;;;;;;2.90;1.25;;;15.30;61.90;;;;;;5096502;28;20709;-92
2022/07/17 11:37:21;;;;;;;1.73;1.20;;;15.20;62.30;;;;;;5094257;28;20903;-93
2022/07/17 11:39:50;;;;;;;1.42;1.20;;;15.10;62.70;;;;;;5095520;28;20460;-84
2022/07/17 11:42:20;;;;;;;1.75;1.13;;;14.90;63.00;;;;;;5094993;28;20449;-85
2022/07/17 11:44:52;;;;;;;1.52;1.08;;;14.90;63.90;;;;;;5095998;28;20848;-92
2022/07/17 11:47:26;;;;;;;2.23;1.20;;;14.80;64.10;;;;;;5095594;28;20381;-91
2022/07/17 11:50:06;;;;;;;2.28;0.90;;;14.80;64.00;;;;;;5095472;28;20373;-86
2022/07/17 11:52:42;;;;;;;2.75;1.00;;;15.00;64.40;;;;;;5094666;28;20380;-93
2022/07/17 11:55:10;;;;;;;2.38;0.90;;;14.80;64.50;;;;;;5094986;28;20422;-90
2022/07/17 11:57:51;;;;;;;2.55;1.00;;;14.70;65.20;;;;;;5095411;28;20381;-93
2022/07/17 12:00:21;;;;;;;1.80;0.80;;;14.60;65.70;;;;;;5095140;28;20988;-90
2022/07/17 12:03:03;;;;;;;1.25;0.90;;;14.50;65.80;;;;;;5094765;28;20381;-93
2022/07/17 12:05:38;;;;;;;2.70;1.10;;;14.50;66.20;;;;;;5095868;28;20430;-93
2022/07/17 12:08:09;;;;;;;1.17;0.90;;;14.50;66.60;;;;;;5094776;28;20373;-84
2022/07/17 12:10:36;;;;;;;0.95;0.70;;;14.40;67.30;;;;;;5096556;28;20372;-92
2022/07/17 12:13:07;;;;;;;1.95;0.80;;;14.30;67.70;;;;;;5095871;28;20950;-86
2022/07/17 12:15:37;;;;;;;2.53;0.88;;;14.30;68.00;;;;;;5095453;28;20387;-89
2022/07/17 12:18:05;;;;;;;1.42;1.00;;;14.30;68.60;;;;;;5096776;28;20372;-92
2022/07/17 12:20:44;;;;;;;0.87;0.60;;;14.30;68.60;;;;;;5095354;28;20416;-90
2022/07/17 12:23:28;;;;;;;2.10;0.70;;;14.30;68.60;;;;;;5094504;28;20761;-87
2022/07/17 12:26:19;;;;;;;1.17;0.60;;;14.40;69.50;;;;;;5096023;28;20372;-92
2022/07/17 12:28:47;;;;;;;2.13;0.80;;;14.40;69.00;;;;;;5096398;28;20451;-93
2022/07/17 12:31:15;;;;;;;2.47;0.90;;;14.30;69.70;;;;;;5095877;28;20864;-94
2022/07/17 12:33:43;;;;;;;1.02;0.75;;;14.30;69.80;;;;;;5096797;28;20376;-90
2022/07/17 12:36:10;;;;;;;2.20;0.70;;;14.40;69.70;;;;;;5094332;28;20463;-93
2022/07/17 12:38:38;;;;;;;2.10;0.82;;;14.40;69.90;;;;;;5095380;28;20392;-84
2022/07/17 12:41:05;;;;;;;1.80;0.80;;;14.40;70.80;;;;;;5094706;28;20401;-92
2022/07/17 12:43:33;;;;;;;1.55;0.70;;;14.40;70.30;;;;;;5096121;28;20380;-92
2022/07/17 12:46:04;;;;;;;1.70;0.80;;;14.30;70.50;;;;;;5094766;28;20435;-93
2022/07/17 12:48:31;;;;;;;2.05;0.70;;;14.30;71.10;;;;;;5093542;28;20394;-85
2022/07/17 12:50:58;;;;;;;1.70;0.70;;;14.20;71.60;;;;;;5094954;28;20376;-90
2022/07/17 12:53:26;;;;;;;2.33;0.70;;;14.20;72.10;;;;;;5093941;28;20407;-89
2022/07/17 12:55:53;;;;;;;1.08;0.70;;;14.20;72.30;;;;;;5094146;28;20402;-85
2022/07/17 12:58:20;;;;;;;1.70;0.70;;;14.10;72.70;;;;;;5094110;28;20372;-94